Time;durP1;ratioP1;P1;durP2;ratioP2;P2;SDS_P1;SDS_P2;PMS_P1;PMS_P2;Temp;Humidity;BMP_temperature;BMP_pressure;BME280_temperature;BME280_humidity;BME280_pressure;Samples;Min_cycle;Max_cycle;Signal;HPM_P1;HPM_P2
2024/03/27 00:02:10;;;;;;;1.67;1.58;;;;;;;;;;5030059;28;20033;-64
2024/03/27 00:04:36;;;;;;;1.50;1.40;;;;;;;;;;5042974;28;20026;-64
2024/03/27 00:07:02;;;;;;;2.70;1.50;;;;;;;;;;5033100;28;20456;-64
2024/03/27 00:09:28;;;;;;;1.70;1.60;;;;;;;;;;5044120;28;20138;-64
2024/03/27 00:11:55;;;;;;;6.32;1.42;;;;;;;;;;5035579;28;20037;-64
2024/03/27 00:14:21;;;;;;;2.05;1.55;;;;;;;;;;5043143;28;20119;-64
2024/03/27 00:16:47;;;;;;;1.35;1.25;;;;;;;;;;5037000;28;20506;-64
2024/03/27 00:19:13;;;;;;;5.68;1.42;;;;;;;;;;5044375;28;20374;-64
2024/03/27 00:21:40;;;;;;;1.13;1.13;;;;;;;;;;5037298;28;20033;-64
2024/03/27 00:24:06;;;;;;;1.30;1.30;;;;;;;;;;5044432;28;20036;-64
2024/03/27 00:26:35;;;;;;;2.00;1.70;;;;;;;;;;5040305;28;20036;-64
2024/03/27 00:29:02;;;;;;;1.75;1.40;;;;;;;;;;5046431;28;20516;-64
2024/03/27 00:31:31;;;;;;;1.40;1.23;;;;;;;;;;5032633;28;20029;-63
2024/03/27 00:33:57;;;;;;;1.00;1.00;;;;;;;;;;5040768;28;20025;-63
2024/03/27 00:36:23;;;;;;;2.00;1.27;;;;;;;;;;5042816;28;20032;-64
2024/03/27 00:38:50;;;;;;;1.63;1.52;;;;;;;;;;5038859;28;20094;-64
2024/03/27 00:41:16;;;;;;;1.65;1.55;;;;;;;;;;5043140;28;20052;-64
2024/03/27 00:43:42;;;;;;;1.88;1.45;;;;;;;;;;5045694;28;20473;-64
2024/03/27 00:46:08;;;;;;;5.97;1.75;;;;;;;;;;5039910;28;20841;-64
2024/03/27 00:48:35;;;;;;;1.50;1.40;;;;;;;;;;5041884;28;20033;-64
2024/03/27 00:51:01;;;;;;;1.35;1.35;;;;;;;;;;5036610;28;20105;-64
2024/03/27 00:53:28;;;;;;;1.40;1.35;;;;;;;;;;5031353;28;20036;-64
2024/03/27 00:55:58;;;;;;;2.72;1.45;;;;;;;;;;5032575;28;20057;-64
2024/03/27 00:58:25;;;;;;;1.25;1.25;;;;;;;;;;5041042;28;20038;-64
2024/03/27 01:00:51;;;;;;;2.00;1.70;;;;;;;;;;5037729;28;20098;-64
2024/03/27 01:03:17;;;;;;;4.07;1.50;;;;;;;;;;5039283;28;20061;-64
2024/03/27 01:05:44;;;;;;;9.52;2.33;;;;;;;;;;5030773;28;20152;-64
2024/03/27 01:08:10;;;;;;;4.68;1.85;;;;;;;;;;5039140;28;20032;-64
2024/03/27 01:10:37;;;;;;;1.25;1.20;;;;;;;;;;5033978;28;20026;-63
2024/03/27 01:13:03;;;;;;;1.20;1.20;;;;;;;;;;5034276;28;20109;-64
2024/03/27 01:15:30;;;;;;;1.08;1.08;;;;;;;;;;5036216;28;20021;-64
2024/03/27 01:17:56;;;;;;;1.52;1.45;;;;;;;;;;5033928;28;20033;-64
2024/03/27 01:20:23;;;;;;;1.20;1.20;;;;;;;;;;5037370;28;20021;-64
2024/03/27 01:22:49;;;;;;;1.13;1.13;;;;;;;;;;5034923;28;20112;-64
2024/03/27 01:25:15;;;;;;;1.20;1.20;;;;;;;;;;5033629;28;20544;-64
2024/03/27 01:27:41;;;;;;;1.33;1.33;;;;;;;;;;5036643;28;20051;-63
2024/03/27 01:30:08;;;;;;;1.50;1.40;;;;;;;;;;5039172;28;20027;-65
2024/03/27 01:32:37;;;;;;;1.30;1.30;;;;;;;;;;5038710;28;20032;-64
2024/03/27 01:35:03;;;;;;;1.20;1.20;;;;;;;;;;5042928;28;20021;-64
2024/03/27 01:37:30;;;;;;;1.20;1.20;;;;;;;;;;5043652;28;20538;-64
2024/03/27 01:39:56;;;;;;;1.40;1.40;;;;;;;;;;5043283;28;20090;-64
2024/03/27 01:42:22;;;;;;;1.20;1.20;;;;;;;;;;5044708;28;20032;-63
2024/03/27 01:44:48;;;;;;;2.72;1.95;;;;;;;;;;5034622;28;20400;-64
2024/03/27 01:47:14;;;;;;;4.60;1.60;;;;;;;;;;5040716;28;20424;-64
2024/03/27 01:49:41;;;;;;;1.13;1.13;;;;;;;;;;5041839;28;20018;-64
2024/03/27 01:52:09;;;;;;;1.48;1.42;;;;;;;;;;5044311;28;20040;-64
2024/03/27 01:54:36;;;;;;;1.58;1.40;;;;;;;;;;5040548;28;20025;-64
2024/03/27 01:57:02;;;;;;;1.45;1.40;;;;;;;;;;5033646;28;20036;-64
2024/03/27 01:59:29;;;;;;;1.27;1.27;;;;;;;;;;5040060;28;20060;-64
2024/03/27 02:01:55;;;;;;;4.13;1.67;;;;;;;;;;5034171;28;20107;-64
2024/03/27 02:04:22;;;;;;;1.25;1.25;;;;;;;;;;5044323;28;20034;-64
2024/03/27 02:06:48;;;;;;;1.63;1.52;;;;;;;;;;5040262;28;20536;-64
2024/03/27 02:09:14;;;;;;;1.33;1.30;;;;;;;;;;5036113;28;20044;-63
2024/03/27 02:11:41;;;;;;;1.25;1.25;;;;;;;;;;5033232;28;20104;-64
2024/03/27 02:14:07;;;;;;;1.50;1.40;;;;;;;;;;5033925;28;20021;-65
2024/03/27 02:16:33;;;;;;;1.50;1.42;;;;;;;;;;5038830;28;20029;-64
2024/03/27 02:18:59;;;;;;;1.50;1.40;;;;;;;;;;5037512;28;20040;-64
2024/03/27 02:21:26;;;;;;;1.50;1.50;;;;;;;;;;5041245;28;20611;-64
2024/03/27 02:23:59;;;;;;;1.52;1.42;;;;;;;;;;5031442;28;20132;-64
2024/03/27 02:26:32;;;;;;;1.90;1.80;;;;;;;;;;5037226;28;20043;-64
2024/03/27 02:28:58;;;;;;;1.42;1.40;;;;;;;;;;5039144;28;20051;-64
2024/03/27 02:31:24;;;;;;;1.60;1.50;;;;;;;;;;5033753;28;20033;-63
2024/03/27 02:33:50;;;;;;;1.98;1.65;;;;;;;;;;5033209;28;20598;-64
2024/03/27 02:36:16;;;;;;;4.28;1.70;;;;;;;;;;5032609;28;20083;-64
2024/03/27 02:38:42;;;;;;;1.60;1.50;;;;;;;;;;5040300;28;20056;-64
2024/03/27 02:41:09;;;;;;;1.70;1.60;;;;;;;;;;5040800;28;20091;-64
2024/03/27 02:43:35;;;;;;;3.42;1.50;;;;;;;;;;5032985;28;20037;-64
2024/03/27 02:46:01;;;;;;;1.52;1.48;;;;;;;;;;5043068;28;20031;-64
2024/03/27 02:48:27;;;;;;;1.55;1.50;;;;;;;;;;5034696;28;20029;-64
2024/03/27 02:50:53;;;;;;;1.70;1.60;;;;;;;;;;5036791;28;20036;-64
2024/03/27 02:53:19;;;;;;;1.95;1.85;;;;;;;;;;5038273;28;20074;-64
2024/03/27 02:55:45;;;;;;;1.40;1.40;;;;;;;;;;5032602;28;20732;-64
2024/03/27 02:58:11;;;;;;;1.70;1.60;;;;;;;;;;5038278;28;20034;-64
2024/03/27 03:00:38;;;;;;;2.85;1.70;;;;;;;;;;5032085;28;20048;-64
2024/03/27 03:03:04;;;;;;;1.40;1.38;;;;;;;;;;5025037;28;20493;-63
2024/03/27 03:05:30;;;;;;;1.60;1.50;;;;;;;;;;5034724;28;20107;-71
2024/03/27 03:07:56;;;;;;;1.50;1.40;;;;;;;;;;5035774;28;20109;-69
2024/03/27 03:10:22;;;;;;;1.33;1.33;;;;;;;;;;5036588;28;20477;-71
2024/03/27 03:12:48;;;;;;;1.20;1.20;;;;;;;;;;5035603;28;20191;-69
2024/03/27 03:15:14;;;;;;;1.80;1.70;;;;;;;;;;5035503;28;20094;-70
2024/03/27 03:17:41;;;;;;;1.45;1.45;;;;;;;;;;5035102;28;20025;-71
2024/03/27 03:20:08;;;;;;;2.53;1.65;;;;;;;;;;5042157;28;20033;-70
2024/03/27 03:22:35;;;;;;;1.40;1.40;;;;;;;;;;5039225;28;20536;-70
2024/03/27 03:25:01;;;;;;;2.38;1.70;;;;;;;;;;5041725;28;20029;-71
2024/03/27 03:27:27;;;;;;;1.83;1.73;;;;;;;;;;5042532;28;20101;-70
2024/03/27 03:29:53;;;;;;;1.55;1.48;;;;;;;;;;5045802;28;20032;-70
2024/03/27 03:32:19;;;;;;;1.88;1.77;;;;;;;;;;5037403;28;20028;-70
2024/03/27 03:34:45;;;;;;;1.45;1.38;;;;;;;;;;5032089;28;20029;-70
2024/03/27 03:37:12;;;;;;;1.60;1.50;;;;;;;;;;5034899;28;20033;-69
2024/03/27 03:39:38;;;;;;;4.25;1.65;;;;;;;;;;5038671;28;20665;-69
2024/03/27 03:42:04;;;;;;;4.60;1.40;;;;;;;;;;5041541;28;20029;-69
2024/03/27 03:44:30;;;;;;;1.20;1.20;;;;;;;;;;5040719;28;20567;-69
2024/03/27 03:46:56;;;;;;;1.75;1.60;;;;;;;;;;5037464;28;20025;-69
2024/03/27 03:49:22;;;;;;;1.80;1.42;;;;;;;;;;5041016;28;20053;-70
2024/03/27 03:51:48;;;;;;;4.82;2.08;;;;;;;;;;5041895;28;20171;-69
2024/03/27 03:54:14;;;;;;;2.03;1.65;;;;;;;;;;5035604;28;20033;-69
2024/03/27 03:56:40;;;;;;;4.22;1.58;;;;;;;;;;5043231;28;20052;-69
2024/03/27 03:59:07;;;;;;;1.48;1.48;;;;;;;;;;5038905;28;20370;-69
2024/03/27 04:01:33;;;;;;;1.45;1.40;;;;;;;;;;5043239;28;20025;-69
2024/03/27 04:03:59;;;;;;;4.95;1.50;;;;;;;;;;5041435;28;20480;-70
2024/03/27 04:06:27;;;;;;;6.10;1.63;;;;;;;;;;5045069;28;20017;-69
2024/03/27 04:08:53;;;;;;;1.20;1.20;;;;;;;;;;5032314;28;20041;-69
2024/03/27 04:11:19;;;;;;;3.25;1.13;;;;;;;;;;5044749;28;20067;-69
2024/03/27 04:13:45;;;;;;;1.70;1.60;;;;;;;;;;5043126;28;20430;-70
2024/03/27 04:16:11;;;;;;;1.63;1.50;;;;;;;;;;5040592;28;20033;-69
2024/03/27 04:18:37;;;;;;;1.17;1.17;;;;;;;;;;5045266;28;20471;-70
2024/03/27 04:21:06;;;;;;;1.20;1.20;;;;;;;;;;5054983;28;20024;-69
2024/03/27 04:23:33;;;;;;;1.27;1.27;;;;;;;;;;5040824;28;20573;-69
2024/03/27 04:25:59;;;;;;;1.30;1.30;;;;;;;;;;5032122;28;20104;-69
2024/03/27 04:28:25;;;;;;;1.50;1.40;;;;;;;;;;5050245;28;20091;-69
2024/03/27 04:30:55;;;;;;;1.27;1.27;;;;;;;;;;5044278;28;20112;-69
2024/03/27 04:33:21;;;;;;;1.58;1.48;;;;;;;;;;5046607;28;20412;-70
2024/03/27 04:35:48;;;;;;;2.72;2.08;;;;;;;;;;5045160;28;20045;-69
2024/03/27 04:38:15;;;;;;;1.63;1.52;;;;;;;;;;5036074;28;20057;-69
2024/03/27 04:40:41;;;;;;;2.40;1.23;;;;;;;;;;5044500;28;20128;-69
2024/03/27 04:43:08;;;;;;;1.40;1.30;;;;;;;;;;5047683;28;20112;-69
2024/03/27 04:45:35;;;;;;;3.20;1.60;;;;;;;;;;5040074;28;20262;-69
2024/03/27 04:48:01;;;;;;;1.40;1.40;;;;;;;;;;5039908;28;20047;-69
2024/03/27 04:50:27;;;;;;;1.58;1.50;;;;;;;;;;5040568;28;20450;-69
2024/03/27 04:52:53;;;;;;;1.38;1.38;;;;;;;;;;5042825;28;20063;-69
2024/03/27 04:55:19;;;;;;;1.40;1.40;;;;;;;;;;5034916;28;20117;-70
2024/03/27 04:57:45;;;;;;;2.50;1.38;;;;;;;;;;5041403;28;20037;-69
2024/03/27 05:00:15;;;;;;;1.10;1.10;;;;;;;;;;5040612;28;20024;-69
2024/03/27 05:02:41;;;;;;;0.90;0.90;;;;;;;;;;5038875;28;20025;-70
2024/03/27 05:05:07;;;;;;;1.75;1.65;;;;;;;;;;5033687;28;20071;-69
2024/03/27 05:07:33;;;;;;;1.05;1.05;;;;;;;;;;5037406;28;20467;-69
2024/03/27 05:10:00;;;;;;;3.78;1.42;;;;;;;;;;5037499;28;20029;-70
2024/03/27 05:12:26;;;;;;;1.20;1.20;;;;;;;;;;5042766;28;20061;-69
2024/03/27 05:14:52;;;;;;;6.18;1.52;;;;;;;;;;5042951;28;20029;-69
2024/03/27 05:17:18;;;;;;;1.10;1.10;;;;;;;;;;5041246;28;20033;-69
2024/03/27 05:19:47;;;;;;;1.77;1.67;;;;;;;;;;5037268;28;20578;-70
2024/03/27 05:22:16;;;;;;;1.10;1.10;;;;;;;;;;5033249;28;20030;-69
2024/03/27 05:24:43;;;;;;;4.03;1.20;;;;;;;;;;5038911;28;20040;-68
2024/03/27 05:27:09;;;;;;;1.67;1.40;;;;;;;;;;5037686;28;20032;-69
2024/03/27 05:29:35;;;;;;;1.92;1.30;;;;;;;;;;5038027;28;20484;-69
2024/03/27 05:32:02;;;;;;;1.10;1.10;;;;;;;;;;5039301;28;20487;-68
2024/03/27 05:34:28;;;;;;;1.30;1.20;;;;;;;;;;5032612;28;20117;-70
2024/03/27 05:36:54;;;;;;;1.10;1.10;;;;;;;;;;5044457;28;20037;-69
2024/03/27 05:39:22;;;;;;;1.30;1.20;;;;;;;;;;5027537;28;20119;-68
2024/03/27 05:41:48;;;;;;;1.40;1.40;;;;;;;;;;5037582;28;20115;-70
2024/03/27 05:44:14;;;;;;;4.40;1.42;;;;;;;;;;5044188;28;20034;-69
2024/03/27 05:46:46;;;;;;;1.58;1.50;;;;;;;;;;5035065;28;20055;-69
2024/03/27 05:49:12;;;;;;;1.30;1.30;;;;;;;;;;5036299;28;20100;-69
2024/03/27 05:51:38;;;;;;;1.20;1.20;;;;;;;;;;5038583;28;20552;-69
2024/03/27 05:54:04;;;;;;;6.30;1.65;;;;;;;;;;5029496;28;20116;-70
2024/03/27 05:56:31;;;;;;;1.40;1.30;;;;;;;;;;5037107;28;20428;-69
2024/03/27 05:58:57;;;;;;;1.60;1.48;;;;;;;;;;5035955;28;20035;-69
2024/03/27 06:01:23;;;;;;;2.38;2.13;;;;;;;;;;5041199;28;20037;-69
2024/03/27 06:03:50;;;;;;;2.30;2.20;;;;;;;;;;5046824;28;20131;-69
2024/03/27 06:06:16;;;;;;;1.48;1.38;;;;;;;;;;5035691;28;20033;-69
2024/03/27 06:08:43;;;;;;;1.30;1.20;;;;;;;;;;5036864;28;20049;-69
2024/03/27 06:11:09;;;;;;;1.80;1.67;;;;;;;;;;5040370;28;20540;-69
2024/03/27 06:13:35;;;;;;;2.00;1.88;;;;;;;;;;5043778;28;20029;-69
2024/03/27 06:16:01;;;;;;;2.45;1.80;;;;;;;;;;5050955;28;20036;-68
2024/03/27 06:18:27;;;;;;;2.60;1.42;;;;;;;;;;5041057;28;20036;-69
2024/03/27 06:20:54;;;;;;;1.25;1.25;;;;;;;;;;5041288;28;20056;-68
2024/03/27 06:23:20;;;;;;;5.78;1.48;;;;;;;;;;5047230;28;20072;-69
2024/03/27 06:25:55;;;;;;;1.60;1.50;;;;;;;;;;5036878;28;20025;-68
2024/03/27 06:28:21;;;;;;;1.50;1.50;;;;;;;;;;5039200;28;20104;-68
2024/03/27 06:30:48;;;;;;;2.22;1.70;;;;;;;;;;5051291;28;20625;-68
2024/03/27 06:33:14;;;;;;;1.45;1.40;;;;;;;;;;5037251;28;20037;-68
2024/03/27 06:35:40;;;;;;;3.60;2.10;;;;;;;;;;5044309;28;20029;-69
2024/03/27 06:38:06;;;;;;;4.88;1.73;;;;;;;;;;5039027;28;20041;-68
2024/03/27 06:40:33;;;;;;;1.33;1.30;;;;;;;;;;5047436;28;20175;-69
2024/03/27 06:42:59;;;;;;;1.70;1.65;;;;;;;;;;5039067;28;20029;-68
2024/03/27 06:45:25;;;;;;;4.18;2.33;;;;;;;;;;5040331;28;20155;-68
2024/03/27 06:47:51;;;;;;;10.98;1.75;;;;;;;;;;5043486;28;20076;-69
2024/03/27 06:50:17;;;;;;;5.85;3.17;;;;;;;;;;5053324;28;20037;-69
2024/03/27 06:52:43;;;;;;;3.33;2.10;;;;;;;;;;5042654;28;20036;-69
2024/03/27 06:55:10;;;;;;;9.13;2.60;;;;;;;;;;5043462;28;20025;-69
2024/03/27 06:57:36;;;;;;;7.28;1.45;;;;;;;;;;5037622;28;20029;-69
2024/03/27 07:00:04;;;;;;;7.03;2.22;;;;;;;;;;5037927;28;20112;-69
2024/03/27 07:02:30;;;;;;;4.88;2.03;;;;;;;;;;5034773;28;20036;-68
2024/03/27 07:04:56;;;;;;;3.28;1.60;;;;;;;;;;5033395;28;20385;-68
2024/03/27 07:07:23;;;;;;;2.65;1.60;;;;;;;;;;5028925;28;20090;-69
2024/03/27 07:09:49;;;;;;;4.35;2.30;;;;;;;;;;5026493;28;20429;-70
2024/03/27 07:12:15;;;;;;;1.30;1.30;;;;;;;;;;5032402;28;20037;-70
2024/03/27 07:14:41;;;;;;;6.63;2.10;;;;;;;;;;5025251;28;20352;-69
2024/03/27 07:17:08;;;;;;;2.58;2.05;;;;;;;;;;5041045;28;21053;-69
2024/03/27 07:19:34;;;;;;;3.92;2.47;;;;;;;;;;5041267;28;20031;-69
2024/03/27 07:22:00;;;;;;;1.55;1.50;;;;;;;;;;5032651;28;20038;-69
2024/03/27 07:24:26;;;;;;;6.82;1.85;;;;;;;;;;5033909;28;20162;-69
2024/03/27 07:26:56;;;;;;;7.72;1.98;;;;;;;;;;5038598;28;20053;-71
2024/03/27 07:29:22;;;;;;;1.55;1.45;;;;;;;;;;5040695;28;20077;-70
2024/03/27 07:31:49;;;;;;;2.00;1.88;;;;;;;;;;5033826;28;20052;-69
2024/03/27 07:34:15;;;;;;;15.75;2.50;;;;;;;;;;5040832;28;20570;-70
2024/03/27 07:36:41;;;;;;;2.10;1.75;;;;;;;;;;5041048;28;20037;-70
2024/03/27 07:39:08;;;;;;;4.03;1.52;;;;;;;;;;5033665;28;20033;-70
2024/03/27 07:41:34;;;;;;;1.00;1.00;;;;;;;;;;5043319;28;20060;-69
2024/03/27 07:44:00;;;;;;;0.90;0.90;;;;;;;;;;5045044;28;20060;-66
2024/03/27 07:46:27;;;;;;;1.00;1.00;;;;;;;;;;5021167;28;20426;-67
2024/03/27 07:48:55;;;;;;;0.80;0.80;;;;;;;;;;5046363;28;20397;-67
2024/03/27 07:51:21;;;;;;;1.00;1.00;;;;;;;;;;5031772;28;21334;-68
2024/03/27 07:53:47;;;;;;;1.05;1.05;;;;;;;;;;5034203;28;20322;-67
2024/03/27 07:56:13;;;;;;;1.10;1.10;;;;;;;;;;5036607;28;20095;-67
2024/03/27 07:58:40;;;;;;;1.10;1.10;;;;;;;;;;5032461;28;20060;-66
2024/03/27 08:01:06;;;;;;;1.00;1.00;;;;;;;;;;5034773;28;20037;-67
2024/03/27 08:03:32;;;;;;;1.10;1.10;;;;;;;;;;5037656;28;20522;-67
2024/03/27 08:05:58;;;;;;;1.10;1.10;;;;;;;;;;5032809;28;20032;-67
2024/03/27 08:08:24;;;;;;;1.20;1.20;;;;;;;;;;5033128;28;20035;-68
2024/03/27 08:11:03;;;;;;;1.10;1.10;;;;;;;;;;5039248;28;20033;-68
2024/03/27 08:13:29;;;;;;;1.00;1.00;;;;;;;;;;5035914;28;20029;-67
2024/03/27 08:15:55;;;;;;;1.10;1.10;;;;;;;;;;5030576;28;20076;-67
2024/03/27 08:18:22;;;;;;;1.13;1.13;;;;;;;;;;5040244;28;20025;-67
2024/03/27 08:20:55;;;;;;;1.00;1.00;;;;;;;;;;5035172;28;20462;-67
2024/03/27 08:23:21;;;;;;;1.10;1.10;;;;;;;;;;5047588;28;20024;-69
2024/03/27 08:25:47;;;;;;;1.08;1.08;;;;;;;;;;5042017;28;20031;-69
2024/03/27 08:28:14;;;;;;;1.10;1.10;;;;;;;;;;5044054;28;20040;-69
2024/03/27 08:30:43;;;;;;;1.85;1.40;;;;;;;;;;5039451;28;20025;-69
2024/03/27 08:33:10;;;;;;;1.10;1.10;;;;;;;;;;5039337;28;21058;-69
2024/03/27 08:35:40;;;;;;;1.10;1.10;;;;;;;;;;5037452;28;20025;-70
2024/03/27 08:38:06;;;;;;;1.40;1.40;;;;;;;;;;5035848;28;20046;-67
2024/03/27 08:40:33;;;;;;;1.20;1.20;;;;;;;;;;5039663;28;20052;-67
2024/03/27 08:42:59;;;;;;;1.10;1.10;;;;;;;;;;5040010;28;20579;-66
2024/03/27 08:45:25;;;;;;;1.30;1.30;;;;;;;;;;5037408;28;20388;-67
2024/03/27 08:47:52;;;;;;;1.10;1.10;;;;;;;;;;5036928;28;20029;-67
2024/03/27 08:50:18;;;;;;;1.55;1.10;;;;;;;;;;5037273;28;20024;-67
2024/03/27 08:52:44;;;;;;;1.17;1.17;;;;;;;;;;5042340;28;20055;-67
2024/03/27 08:55:11;;;;;;;1.13;1.13;;;;;;;;;;5035801;28;20111;-67
2024/03/27 08:57:37;;;;;;;1.10;1.10;;;;;;;;;;5039550;28;20025;-65
2024/03/27 09:00:04;;;;;;;1.23;1.23;;;;;;;;;;5035279;28;20118;-68
2024/03/27 09:02:31;;;;;;;1.30;1.30;;;;;;;;;;5034715;28;20021;-67
2024/03/27 09:04:57;;;;;;;1.10;1.10;;;;;;;;;;5036346;28;20158;-68
2024/03/27 09:07:23;;;;;;;1.10;1.10;;;;;;;;;;5044809;28;20048;-68
2024/03/27 09:09:49;;;;;;;1.20;1.20;;;;;;;;;;5041416;28;20400;-68
2024/03/27 09:12:16;;;;;;;1.10;1.10;;;;;;;;;;5037786;28;20078;-69
2024/03/27 09:14:42;;;;;;;1.10;1.10;;;;;;;;;;5046208;28;20051;-68
2024/03/27 09:17:08;;;;;;;1.15;1.15;;;;;;;;;;5039148;28;20040;-68
2024/03/27 09:19:35;;;;;;;1.10;1.10;;;;;;;;;;5038607;28;20313;-68
2024/03/27 09:22:01;;;;;;;1.10;1.10;;;;;;;;;;5038020;28;20855;-69
2024/03/27 09:24:28;;;;;;;7.43;2.17;;;;;;;;;;5044602;28;20024;-69
2024/03/27 09:26:54;;;;;;;1.35;1.35;;;;;;;;;;5050764;28;20029;-67
2024/03/27 09:29:21;;;;;;;1.30;1.30;;;;;;;;;;5053674;28;20543;-68
2024/03/27 09:31:47;;;;;;;1.08;1.08;;;;;;;;;;5050384;28;20388;-68
2024/03/27 09:34:13;;;;;;;1.00;1.00;;;;;;;;;;5043604;28;20492;-67
2024/03/27 09:36:39;;;;;;;1.10;1.10;;;;;;;;;;5035361;28;20039;-67
2024/03/27 09:39:07;;;;;;;1.75;1.75;;;;;;;;;;5040592;28;20617;-67
2024/03/27 09:41:33;;;;;;;1.20;1.20;;;;;;;;;;5034026;28;20030;-70
2024/03/27 09:44:00;;;;;;;1.25;1.25;;;;;;;;;;5037239;28;20040;-70
2024/03/27 09:46:26;;;;;;;1.33;1.33;;;;;;;;;;5039707;28;20032;-71
2024/03/27 09:48:53;;;;;;;1.13;1.13;;;;;;;;;;5041634;28;20508;-71
2024/03/27 09:51:20;;;;;;;1.50;1.45;;;;;;;;;;5034057;28;20044;-71
2024/03/27 09:53:47;;;;;;;1.30;1.30;;;;;;;;;;5048019;28;20083;-66
2024/03/27 09:56:13;;;;;;;2.03;1.48;;;;;;;;;;5042344;28;20041;-72
2024/03/27 09:58:40;;;;;;;1.23;1.23;;;;;;;;;;5039822;28;20068;-68
2024/03/27 10:01:06;;;;;;;2.15;1.35;;;;;;;;;;5039412;28;20107;-71
2024/03/27 10:03:35;;;;;;;1.20;1.20;;;;;;;;;;5042930;28;20373;-72
2024/03/27 10:06:02;;;;;;;1.42;1.42;;;;;;;;;;5037772;28;20591;-72
2024/03/27 10:08:28;;;;;;;1.30;1.30;;;;;;;;;;5037997;28;20059;-68
2024/03/27 10:10:57;;;;;;;1.48;1.38;;;;;;;;;;5038745;28;20029;-71
2024/03/27 10:13:24;;;;;;;5.38;1.55;;;;;;;;;;5040483;28;20029;-69
2024/03/27 10:15:51;;;;;;;1.95;1.40;;;;;;;;;;5038532;28;20021;-71
2024/03/27 10:18:18;;;;;;;1.50;1.50;;;;;;;;;;5043208;28;20035;-67
2024/03/27 10:20:44;;;;;;;2.25;1.42;;;;;;;;;;5038667;28;20037;-68
2024/03/27 10:23:11;;;;;;;1.25;1.23;;;;;;;;;;5036068;28;20374;-67
2024/03/27 10:25:41;;;;;;;2.20;1.45;;;;;;;;;;5040862;28;20035;-68
2024/03/27 10:28:10;;;;;;;1.20;1.20;;;;;;;;;;5038689;28;20055;-67
2024/03/27 10:30:40;;;;;;;1.40;1.30;;;;;;;;;;5049424;28;20082;-66
2024/03/27 10:33:06;;;;;;;1.80;1.20;;;;;;;;;;5045248;28;20028;-67
2024/03/27 10:35:33;;;;;;;1.23;1.23;;;;;;;;;;5045244;28;20248;-67
2024/03/27 10:38:00;;;;;;;1.17;1.17;;;;;;;;;;5040559;28;20067;-68
2024/03/27 10:40:26;;;;;;;1.35;1.35;;;;;;;;;;5047021;28;20251;-68
2024/03/27 10:43:23;;;;;;;1.20;1.20;;;;;;;;;;5035410;28;20052;-68
2024/03/27 10:45:51;;;;;;;6.85;1.80;;;;;;;;;;5045000;28;20025;-67
2024/03/27 10:48:18;;;;;;;1.67;1.63;;;;;;;;;;5046006;28;20025;-68
2024/03/27 10:50:45;;;;;;;1.25;1.25;;;;;;;;;;5038765;28;20549;-65
2024/03/27 10:53:12;;;;;;;1.35;1.35;;;;;;;;;;5039131;28;21019;-70
2024/03/27 10:55:40;;;;;;;1.38;1.10;;;;;;;;;;5038637;28;20458;-69
2024/03/27 10:58:07;;;;;;;1.10;1.10;;;;;;;;;;5049352;28;20029;-69
2024/03/27 11:00:33;;;;;;;1.10;1.10;;;;;;;;;;5038778;28;20033;-69
2024/03/27 11:02:59;;;;;;;2.45;1.15;;;;;;;;;;5038507;28;20024;-70
2024/03/27 11:05:29;;;;;;;1.10;1.10;;;;;;;;;;5037646;28;20076;-70
2024/03/27 11:07:58;;;;;;;3.00;1.60;;;;;;;;;;5041715;28;20036;-70
2024/03/27 11:10:25;;;;;;;4.60;1.52;;;;;;;;;;5036654;28;20059;-70
2024/03/27 11:12:52;;;;;;;1.30;1.30;;;;;;;;;;5038197;28;20020;-68
2024/03/27 11:15:18;;;;;;;1.60;1.50;;;;;;;;;;5038313;28;20030;-70
2024/03/27 11:17:52;;;;;;;1.48;1.30;;;;;;;;;;5036849;28;20029;-70
2024/03/27 11:20:18;;;;;;;1.33;1.20;;;;;;;;;;5037388;28;20029;-71
2024/03/27 11:22:48;;;;;;;1.20;1.20;;;;;;;;;;5038773;28;20836;-71
2024/03/27 11:25:15;;;;;;;1.20;1.20;;;;;;;;;;5038775;28;20276;-72
2024/03/27 11:27:41;;;;;;;2.83;1.42;;;;;;;;;;5038140;28;20566;-67
2024/03/27 11:30:07;;;;;;;2.65;1.30;;;;;;;;;;5040943;28;20036;-71
2024/03/27 11:32:34;;;;;;;1.33;1.27;;;;;;;;;;5038871;28;20029;-70
2024/03/27 11:35:01;;;;;;;1.23;1.23;;;;;;;;;;5039081;28;20389;-68
2024/03/27 11:37:29;;;;;;;3.83;1.40;;;;;;;;;;5037102;28;20040;-69
2024/03/27 11:39:55;;;;;;;1.35;1.35;;;;;;;;;;5037712;28;20635;-70
2024/03/27 11:42:22;;;;;;;1.45;1.38;;;;;;;;;;5039553;28;20025;-70
2024/03/27 11:44:48;;;;;;;1.83;1.73;;;;;;;;;;5047239;28;20044;-71
2024/03/27 11:47:18;;;;;;;1.42;1.40;;;;;;;;;;5045372;28;20215;-73
2024/03/27 11:49:44;;;;;;;2.15;1.40;;;;;;;;;;5039910;28;21246;-71
2024/03/27 11:52:11;;;;;;;1.58;1.30;;;;;;;;;;5037464;28;20021;-71
2024/03/27 11:54:37;;;;;;;1.48;1.40;;;;;;;;;;5033506;28;20460;-71
2024/03/27 11:57:03;;;;;;;1.15;1.13;;;;;;;;;;5034997;28;20025;-71
2024/03/27 11:59:29;;;;;;;6.68;1.95;;;;;;;;;;5057229;28;20038;-71
2024/03/27 12:01:55;;;;;;;3.03;1.52;;;;;;;;;;5039693;28;20041;-71
2024/03/27 12:04:22;;;;;;;1.05;1.05;;;;;;;;;;5043060;28;20089;-72
2024/03/27 12:06:48;;;;;;;1.65;1.55;;;;;;;;;;5041110;28;20017;-71
2024/03/27 12:09:15;;;;;;;1.30;1.30;;;;;;;;;;5038303;28;20052;-71
2024/03/27 12:11:41;;;;;;;2.00;1.80;;;;;;;;;;5046072;28;20025;-70
2024/03/27 12:14:07;;;;;;;1.42;1.40;;;;;;;;;;5042473;28;20112;-70
2024/03/27 12:16:33;;;;;;;3.60;2.58;;;;;;;;;;5045498;28;20067;-70
2024/03/27 12:18:59;;;;;;;2.30;1.75;;;;;;;;;;5045171;28;20029;-70
2024/03/27 12:21:26;;;;;;;1.95;1.77;;;;;;;;;;5044472;28;20021;-70
2024/03/27 12:23:52;;;;;;;1.65;1.50;;;;;;;;;;5038448;28;20044;-71
2024/03/27 12:26:18;;;;;;;1.63;1.52;;;;;;;;;;5039765;28;20028;-71
2024/03/27 12:28:45;;;;;;;1.70;1.60;;;;;;;;;;5040984;28;20661;-71
2024/03/27 12:31:12;;;;;;;1.45;1.45;;;;;;;;;;5045677;28;20025;-71
2024/03/27 12:33:39;;;;;;;1.10;1.10;;;;;;;;;;5049805;28;20120;-71
2024/03/27 12:36:05;;;;;;;0.90;0.90;;;;;;;;;;5040627;28;20025;-72
2024/03/27 12:38:31;;;;;;;1.00;1.00;;;;;;;;;;5050392;28;20048;-71
2024/03/27 12:40:58;;;;;;;1.10;1.10;;;;;;;;;;5042981;28;20028;-69
2024/03/27 12:43:24;;;;;;;1.30;1.30;;;;;;;;;;5043410;28;20052;-69
2024/03/27 12:45:50;;;;;;;1.40;1.40;;;;;;;;;;5044532;28;20024;-67
2024/03/27 12:48:20;;;;;;;1.40;1.40;;;;;;;;;;5040770;28;20017;-68
2024/03/27 12:50:46;;;;;;;0.90;0.90;;;;;;;;;;5044435;28;20456;-75
2024/03/27 12:53:13;;;;;;;0.90;0.90;;;;;;;;;;5037019;28;20078;-73
2024/03/27 12:55:39;;;;;;;0.95;0.95;;;;;;;;;;5039245;28;20029;-73
2024/03/27 12:58:05;;;;;;;1.00;1.00;;;;;;;;;;5038843;28;20579;-75
2024/03/27 13:00:31;;;;;;;1.35;1.10;;;;;;;;;;5040346;28;20029;-68
2024/03/27 13:02:58;;;;;;;1.17;1.17;;;;;;;;;;5039022;28;20419;-73
2024/03/27 13:05:24;;;;;;;1.23;1.23;;;;;;;;;;5044200;28;20021;-71
2024/03/27 13:07:50;;;;;;;1.35;1.25;;;;;;;;;;5043543;28;20036;-72
2024/03/27 13:10:17;;;;;;;1.20;1.20;;;;;;;;;;5041662;28;20028;-71
2024/03/27 13:12:43;;;;;;;1.20;1.20;;;;;;;;;;5042995;28;20025;-73
2024/03/27 13:15:09;;;;;;;2.25;1.33;;;;;;;;;;5040938;28;20025;-67
2024/03/27 13:17:35;;;;;;;1.17;1.10;;;;;;;;;;5038462;28;20029;-67
2024/03/27 13:20:03;;;;;;;1.17;1.17;;;;;;;;;;5033726;28;20033;-68
2024/03/27 13:22:29;;;;;;;1.30;1.30;;;;;;;;;;5041177;28;20059;-67
2024/03/27 13:24:55;;;;;;;1.52;1.42;;;;;;;;;;5041292;28;20025;-67
2024/03/27 13:27:21;;;;;;;2.35;1.48;;;;;;;;;;5035925;28;20079;-68
2024/03/27 13:29:47;;;;;;;1.15;1.08;;;;;;;;;;5039449;28;20676;-67
2024/03/27 13:32:14;;;;;;;1.00;1.00;;;;;;;;;;5043372;28;20029;-68
2024/03/27 13:34:40;;;;;;;0.85;0.85;;;;;;;;;;5038916;28;20032;-68
2024/03/27 13:37:06;;;;;;;1.10;1.10;;;;;;;;;;5038793;28;20037;-69
2024/03/27 13:39:33;;;;;;;1.38;1.38;;;;;;;;;;5034904;28;20041;-68
2024/03/27 13:41:59;;;;;;;1.50;1.40;;;;;;;;;;5040107;28;20047;-70
2024/03/27 13:44:25;;;;;;;1.45;1.42;;;;;;;;;;5038008;28;20041;-68
2024/03/27 13:46:51;;;;;;;1.30;1.30;;;;;;;;;;5040104;28;20033;-69
2024/03/27 13:49:17;;;;;;;2.17;1.00;;;;;;;;;;5037529;28;20063;-69
2024/03/27 13:51:44;;;;;;;1.20;1.20;;;;;;;;;;5029341;28;20029;-69
2024/03/27 13:54:11;;;;;;;1.00;1.00;;;;;;;;;;5040435;28;20021;-69
2024/03/27 13:56:37;;;;;;;1.20;0.88;;;;;;;;;;5027831;28;20121;-69
2024/03/27 13:59:03;;;;;;;1.00;1.00;;;;;;;;;;5041468;28;20542;-69
2024/03/27 14:01:29;;;;;;;1.38;1.27;;;;;;;;;;5043086;28;20033;-69
2024/03/27 14:03:55;;;;;;;2.28;1.60;;;;;;;;;;5037962;28;20428;-68
2024/03/27 14:06:21;;;;;;;2.20;2.00;;;;;;;;;;5038774;28;20080;-67
2024/03/27 14:08:48;;;;;;;1.38;1.33;;;;;;;;;;5038724;28;20036;-67
2024/03/27 14:11:14;;;;;;;0.98;0.98;;;;;;;;;;5028875;28;20024;-69
2024/03/27 14:13:40;;;;;;;0.85;0.85;;;;;;;;;;5045912;28;20460;-69
2024/03/27 14:16:07;;;;;;;0.90;0.90;;;;;;;;;;5039613;28;20083;-71
2024/03/27 14:18:33;;;;;;;0.80;0.80;;;;;;;;;;5040832;28;20036;-71
2024/03/27 14:20:59;;;;;;;0.90;0.90;;;;;;;;;;5040411;28;20028;-69
2024/03/27 14:23:29;;;;;;;0.90;0.90;;;;;;;;;;5048801;28;20024;-68
2024/03/27 14:25:56;;;;;;;1.25;1.25;;;;;;;;;;5044648;28;20029;-68
2024/03/27 14:28:23;;;;;;;1.00;1.00;;;;;;;;;;5037316;28;20021;-68
2024/03/27 14:30:50;;;;;;;1.10;1.10;;;;;;;;;;5037106;28;20408;-69
2024/03/27 14:33:16;;;;;;;1.60;1.50;;;;;;;;;;5041056;28;20036;-71
2024/03/27 14:35:43;;;;;;;2.10;1.48;;;;;;;;;;5046716;28;20040;-67
2024/03/27 14:38:09;;;;;;;3.92;1.70;;;;;;;;;;5047037;28;20055;-67
2024/03/27 14:40:35;;;;;;;1.75;1.65;;;;;;;;;;5039871;28;20148;-67